sensor_id;sensor_type;location;lat;lon;timestamp;P1;durP1;ratioP1;P2;durP2;ratioP2
52686;SDS011;38584;49.426;8.396;2023-03-01T00:01:47;23.83;;;11.35;;
52686;SDS011;38584;49.426;8.396;2023-03-01T00:04:12;25.30;;;10.50;;
52686;SDS011;38584;49.426;8.396;2023-03-01T00:06:41;24.35;;;11.38;;
52686;SDS011;38584;49.426;8.396;2023-03-01T00:09:07;24.60;;;11.63;;
52686;SDS011;38584;49.426;8.396;2023-03-01T00:11:33;27.48;;;12.23;;
52686;SDS011;38584;49.426;8.396;2023-03-01T00:14:07;37.08;;;12.60;;
52686;SDS011;38584;49.426;8.396;2023-03-01T00:16:34;30.08;;;13.77;;
52686;SDS011;38584;49.426;8.396;2023-03-01T00:19:10;24.90;;;12.63;;
52686;SDS011;38584;49.426;8.396;2023-03-01T00:21:39;24.50;;;12.30;;
52686;SDS011;38584;49.426;8.396;2023-03-01T00:24:07;22.98;;;11.98;;
52686;SDS011;38584;49.426;8.396;2023-03-01T00:26:33;26.00;;;12.40;;
52686;SDS011;38584;49.426;8.396;2023-03-01T00:29:01;22.45;;;11.43;;
52686;SDS011;38584;49.426;8.396;2023-03-01T00:31:28;20.08;;;11.52;;
52686;SDS011;38584;49.426;8.396;2023-03-01T00:33:55;25.65;;;12.75;;
52686;SDS011;38584;49.426;8.396;2023-03-01T00:36:28;22.73;;;11.18;;
52686;SDS011;38584;49.426;8.396;2023-03-01T00:38:57;22.80;;;11.88;;
52686;SDS011;38584;49.426;8.396;2023-03-01T00:41:23;21.00;;;11.25;;
52686;SDS011;38584;49.426;8.396;2023-03-01T00:43:54;22.45;;;11.25;;
52686;SDS011;38584;49.426;8.396;2023-03-01T00:46:20;22.55;;;11.30;;
52686;SDS011;38584;49.426;8.396;2023-03-01T00:48:47;26.40;;;12.68;;
52686;SDS011;38584;49.426;8.396;2023-03-01T00:51:17;23.67;;;11.57;;
52686;SDS011;38584;49.426;8.396;2023-03-01T00:56:20;26.27;;;12.65;;
52686;SDS011;38584;49.426;8.396;2023-03-01T00:58:45;27.23;;;13.60;;
52686;SDS011;38584;49.426;8.396;2023-03-01T01:01:15;29.83;;;11.95;;
52686;SDS011;38584;49.426;8.396;2023-03-01T01:03:47;31.67;;;13.65;;
52686;SDS011;38584;49.426;8.396;2023-03-01T01:08:53;27.85;;;13.40;;
52686;SDS011;38584;49.426;8.396;2023-03-01T01:11:19;30.38;;;13.35;;
52686;SDS011;38584;49.426;8.396;2023-03-01T01:13:46;27.35;;;13.70;;
52686;SDS011;38584;49.426;8.396;2023-03-01T01:16:11;27.17;;;13.07;;
52686;SDS011;38584;49.426;8.396;2023-03-01T01:18:37;26.38;;;14.00;;
52686;SDS011;38584;49.426;8.396;2023-03-01T01:21:03;25.70;;;13.70;;
52686;SDS011;38584;49.426;8.396;2023-03-01T01:23:33;29.17;;;14.10;;
52686;SDS011;38584;49.426;8.396;2023-03-01T01:26:03;30.05;;;14.15;;
52686;SDS011;38584;49.426;8.396;2023-03-01T01:28:38;29.40;;;14.02;;
52686;SDS011;38584;49.426;8.396;2023-03-01T01:31:04;27.40;;;14.55;;
52686;SDS011;38584;49.426;8.396;2023-03-01T01:33:33;26.80;;;13.70;;
52686;SDS011;38584;49.426;8.396;2023-03-01T01:35:59;27.08;;;14.68;;
52686;SDS011;38584;49.426;8.396;2023-03-01T01:38:24;28.10;;;14.48;;
52686;SDS011;38584;49.426;8.396;2023-03-01T01:40:50;26.83;;;13.90;;
52686;SDS011;38584;49.426;8.396;2023-03-01T01:44:08;28.17;;;14.07;;
52686;SDS011;38584;49.426;8.396;2023-03-01T01:49:03;28.30;;;14.10;;
52686;SDS011;38584;49.426;8.396;2023-03-01T01:51:39;27.38;;;13.55;;
52686;SDS011;38584;49.426;8.396;2023-03-01T01:54:10;24.05;;;13.48;;
52686;SDS011;38584;49.426;8.396;2023-03-01T01:56:42;23.92;;;12.68;;
52686;SDS011;38584;49.426;8.396;2023-03-01T01:59:12;25.77;;;12.70;;
52686;SDS011;38584;49.426;8.396;2023-03-01T02:01:42;25.90;;;12.60;;
52686;SDS011;38584;49.426;8.396;2023-03-01T02:04:08;24.05;;;12.25;;
52686;SDS011;38584;49.426;8.396;2023-03-01T02:06:35;23.55;;;12.48;;
52686;SDS011;38584;49.426;8.396;2023-03-01T02:09:05;27.95;;;13.73;;
52686;SDS011;38584;49.426;8.396;2023-03-01T02:11:36;26.00;;;12.95;;
52686;SDS011;38584;49.426;8.396;2023-03-01T02:14:02;27.48;;;13.05;;
52686;SDS011;38584;49.426;8.396;2023-03-01T02:16:28;26.15;;;13.10;;
52686;SDS011;38584;49.426;8.396;2023-03-01T02:18:53;28.10;;;13.00;;
52686;SDS011;38584;49.426;8.396;2023-03-01T02:21:43;25.17;;;13.10;;
52686;SDS011;38584;49.426;8.396;2023-03-01T02:26:46;27.05;;;13.63;;
52686;SDS011;38584;49.426;8.396;2023-03-01T02:29:14;27.42;;;13.95;;
52686;SDS011;38584;49.426;8.396;2023-03-01T02:31:39;26.05;;;13.57;;
52686;SDS011;38584;49.426;8.396;2023-03-01T02:34:17;27.20;;;13.55;;
52686;SDS011;38584;49.426;8.396;2023-03-01T02:36:49;26.15;;;13.10;;
52686;SDS011;38584;49.426;8.396;2023-03-01T02:39:18;28.23;;;12.63;;
52686;SDS011;38584;49.426;8.396;2023-03-01T02:41:53;28.02;;;14.20;;
52686;SDS011;38584;49.426;8.396;2023-03-01T02:44:20;26.48;;;14.23;;
52686;SDS011;38584;49.426;8.396;2023-03-01T02:46:47;30.00;;;14.35;;
52686;SDS011;38584;49.426;8.396;2023-03-01T02:49:24;27.42;;;13.25;;
52686;SDS011;38584;49.426;8.396;2023-03-01T02:54:50;25.58;;;13.63;;
52686;SDS011;38584;49.426;8.396;2023-03-01T02:57:21;31.05;;;14.52;;
52686;SDS011;38584;49.426;8.396;2023-03-01T02:59:50;26.83;;;13.52;;
52686;SDS011;38584;49.426;8.396;2023-03-01T03:02:20;26.38;;;13.65;;
52686;SDS011;38584;49.426;8.396;2023-03-01T03:05:13;27.65;;;14.45;;
52686;SDS011;38584;49.426;8.396;2023-03-01T03:07:40;27.80;;;13.90;;
52686;SDS011;38584;49.426;8.396;2023-03-01T03:10:08;27.35;;;13.85;;
52686;SDS011;38584;49.426;8.396;2023-03-01T03:12:39;29.75;;;15.57;;
52686;SDS011;38584;49.426;8.396;2023-03-01T03:15:05;24.58;;;13.38;;
52686;SDS011;38584;49.426;8.396;2023-03-01T03:17:36;29.52;;;14.82;;
52686;SDS011;38584;49.426;8.396;2023-03-01T03:20:05;28.67;;;15.35;;
52686;SDS011;38584;49.426;8.396;2023-03-01T03:22:36;30.20;;;15.02;;
52686;SDS011;38584;49.426;8.396;2023-03-01T03:25:08;28.08;;;14.55;;
52686;SDS011;38584;49.426;8.396;2023-03-01T03:27:41;30.40;;;14.17;;
52686;SDS011;38584;49.426;8.396;2023-03-01T03:30:09;29.25;;;14.75;;
52686;SDS011;38584;49.426;8.396;2023-03-01T03:32:37;31.45;;;15.55;;
52686;SDS011;38584;49.426;8.396;2023-03-01T03:35:04;28.13;;;14.50;;
52686;SDS011;38584;49.426;8.396;2023-03-01T03:37:43;30.45;;;14.48;;
52686;SDS011;38584;49.426;8.396;2023-03-01T03:40:27;28.42;;;14.85;;
52686;SDS011;38584;49.426;8.396;2023-03-01T03:43:06;29.63;;;14.98;;
52686;SDS011;38584;49.426;8.396;2023-03-01T03:45:33;28.92;;;14.88;;
52686;SDS011;38584;49.426;8.396;2023-03-01T03:48:00;27.85;;;15.45;;
52686;SDS011;38584;49.426;8.396;2023-03-01T03:50:29;33.95;;;16.23;;
52686;SDS011;38584;49.426;8.396;2023-03-01T03:52:57;27.42;;;16.48;;
52686;SDS011;38584;49.426;8.396;2023-03-01T03:55:26;27.50;;;15.30;;
52686;SDS011;38584;49.426;8.396;2023-03-01T03:57:58;31.92;;;16.83;;
52686;SDS011;38584;49.426;8.396;2023-03-01T04:00:30;28.02;;;15.27;;
52686;SDS011;38584;49.426;8.396;2023-03-01T04:02:58;28.65;;;15.45;;
52686;SDS011;38584;49.426;8.396;2023-03-01T04:05:23;26.55;;;15.27;;
52686;SDS011;38584;49.426;8.396;2023-03-01T04:07:52;29.33;;;15.40;;
52686;SDS011;38584;49.426;8.396;2023-03-01T04:10:37;30.15;;;15.32;;
52686;SDS011;38584;49.426;8.396;2023-03-01T04:13:03;30.75;;;15.90;;
52686;SDS011;38584;49.426;8.396;2023-03-01T04:15:39;35.22;;;16.20;;
52686;SDS011;38584;49.426;8.396;2023-03-01T04:18:05;33.50;;;17.20;;
52686;SDS011;38584;49.426;8.396;2023-03-01T04:20:31;33.38;;;16.65;;
52686;SDS011;38584;49.426;8.396;2023-03-01T04:25:50;36.65;;;18.73;;
52686;SDS011;38584;49.426;8.396;2023-03-01T04:28:26;34.00;;;17.75;;
52686;SDS011;38584;49.426;8.396;2023-03-01T04:30:58;31.52;;;18.90;;
52686;SDS011;38584;49.426;8.396;2023-03-01T04:33:24;33.90;;;17.17;;
52686;SDS011;38584;49.426;8.396;2023-03-01T04:35:53;34.20;;;18.23;;
52686;SDS011;38584;49.426;8.396;2023-03-01T04:38:21;32.72;;;17.83;;
52686;SDS011;38584;49.426;8.396;2023-03-01T04:40:53;34.28;;;18.73;;
52686;SDS011;38584;49.426;8.396;2023-03-01T04:43:18;36.33;;;18.58;;
52686;SDS011;38584;49.426;8.396;2023-03-01T04:45:43;37.20;;;18.67;;
52686;SDS011;38584;49.426;8.396;2023-03-01T04:48:09;33.88;;;18.10;;
52686;SDS011;38584;49.426;8.396;2023-03-01T04:50:34;32.85;;;19.13;;
52686;SDS011;38584;49.426;8.396;2023-03-01T04:53:02;36.70;;;19.25;;
52686;SDS011;38584;49.426;8.396;2023-03-01T04:55:28;37.17;;;18.55;;
52686;SDS011;38584;49.426;8.396;2023-03-01T04:57:54;34.78;;;17.30;;
52686;SDS011;38584;49.426;8.396;2023-03-01T05:00:23;34.95;;;17.48;;
52686;SDS011;38584;49.426;8.396;2023-03-01T05:02:55;35.15;;;18.52;;
52686;SDS011;38584;49.426;8.396;2023-03-01T05:05:26;30.02;;;17.30;;
52686;SDS011;38584;49.426;8.396;2023-03-01T05:08:01;35.15;;;18.13;;
52686;SDS011;38584;49.426;8.396;2023-03-01T05:10:30;40.80;;;19.00;;
52686;SDS011;38584;49.426;8.396;2023-03-01T05:12:57;38.25;;;18.50;;
52686;SDS011;38584;49.426;8.396;2023-03-01T05:15:24;36.63;;;16.92;;
52686;SDS011;38584;49.426;8.396;2023-03-01T05:17:54;36.65;;;18.35;;
52686;SDS011;38584;49.426;8.396;2023-03-01T05:20:23;36.92;;;18.30;;
52686;SDS011;38584;49.426;8.396;2023-03-01T05:22:52;34.33;;;18.63;;
52686;SDS011;38584;49.426;8.396;2023-03-01T05:25:17;33.40;;;17.52;;
52686;SDS011;38584;49.426;8.396;2023-03-01T05:27:49;34.90;;;18.75;;
52686;SDS011;38584;49.426;8.396;2023-03-01T05:30:14;33.97;;;17.52;;
52686;SDS011;38584;49.426;8.396;2023-03-01T05:32:41;35.25;;;18.02;;
52686;SDS011;38584;49.426;8.396;2023-03-01T05:35:08;37.80;;;18.45;;
52686;SDS011;38584;49.426;8.396;2023-03-01T05:37:38;33.72;;;18.05;;
52686;SDS011;38584;49.426;8.396;2023-03-01T05:40:04;33.75;;;18.40;;
52686;SDS011;38584;49.426;8.396;2023-03-01T05:42:30;41.50;;;19.70;;
52686;SDS011;38584;49.426;8.396;2023-03-01T05:44:58;36.60;;;19.00;;
52686;SDS011;38584;49.426;8.396;2023-03-01T05:47:24;33.38;;;17.55;;
52686;SDS011;38584;49.426;8.396;2023-03-01T05:49:49;37.22;;;18.95;;
52686;SDS011;38584;49.426;8.396;2023-03-01T05:52:18;37.70;;;17.83;;
52686;SDS011;38584;49.426;8.396;2023-03-01T05:54:43;37.22;;;19.40;;
52686;SDS011;38584;49.426;8.396;2023-03-01T05:57:08;34.78;;;17.85;;
52686;SDS011;38584;49.426;8.396;2023-03-01T05:59:34;34.97;;;18.45;;
52686;SDS011;38584;49.426;8.396;2023-03-01T06:02:02;36.97;;;18.38;;
52686;SDS011;38584;49.426;8.396;2023-03-01T06:04:28;33.60;;;18.30;;
52686;SDS011;38584;49.426;8.396;2023-03-01T06:06:56;34.42;;;18.23;;
52686;SDS011;38584;49.426;8.396;2023-03-01T06:09:21;37.40;;;18.52;;
52686;SDS011;38584;49.426;8.396;2023-03-01T06:11:49;40.88;;;19.88;;
52686;SDS011;38584;49.426;8.396;2023-03-01T06:14:15;33.25;;;17.95;;
52686;SDS011;38584;49.426;8.396;2023-03-01T06:16:40;41.40;;;18.63;;
52686;SDS011;38584;49.426;8.396;2023-03-01T06:19:05;40.10;;;19.67;;
52686;SDS011;38584;49.426;8.396;2023-03-01T06:21:30;36.33;;;19.25;;
52686;SDS011;38584;49.426;8.396;2023-03-01T06:23:58;34.08;;;19.10;;
52686;SDS011;38584;49.426;8.396;2023-03-01T06:26:24;36.55;;;18.83;;
52686;SDS011;38584;49.426;8.396;2023-03-01T06:28:49;35.03;;;18.67;;
52686;SDS011;38584;49.426;8.396;2023-03-01T06:31:15;35.15;;;19.10;;
52686;SDS011;38584;49.426;8.396;2023-03-01T06:33:43;37.83;;;20.08;;
52686;SDS011;38584;49.426;8.396;2023-03-01T06:36:09;34.88;;;18.92;;
52686;SDS011;38584;49.426;8.396;2023-03-01T06:38:35;37.25;;;20.13;;
52686;SDS011;38584;49.426;8.396;2023-03-01T06:41:03;41.22;;;20.83;;
52686;SDS011;38584;49.426;8.396;2023-03-01T06:43:29;40.03;;;20.02;;
52686;SDS011;38584;49.426;8.396;2023-03-01T06:45:54;35.58;;;19.67;;
52686;SDS011;38584;49.426;8.396;2023-03-01T06:48:19;53.55;;;21.20;;
52686;SDS011;38584;49.426;8.396;2023-03-01T06:50:45;44.50;;;19.45;;
52686;SDS011;38584;49.426;8.396;2023-03-01T06:53:13;43.25;;;19.80;;
52686;SDS011;38584;49.426;8.396;2023-03-01T06:55:41;38.20;;;20.25;;
52686;SDS011;38584;49.426;8.396;2023-03-01T06:58:06;37.17;;;19.02;;
52686;SDS011;38584;49.426;8.396;2023-03-01T07:00:32;37.08;;;18.73;;
52686;SDS011;38584;49.426;8.396;2023-03-01T07:03:06;41.05;;;19.73;;
52686;SDS011;38584;49.426;8.396;2023-03-01T07:05:38;38.80;;;19.05;;
52686;SDS011;38584;49.426;8.396;2023-03-01T07:08:07;37.47;;;19.20;;
52686;SDS011;38584;49.426;8.396;2023-03-01T07:10:32;38.20;;;19.17;;
52686;SDS011;38584;49.426;8.396;2023-03-01T07:12:58;36.15;;;19.08;;
52686;SDS011;38584;49.426;8.396;2023-03-01T07:15:24;41.38;;;19.23;;
52686;SDS011;38584;49.426;8.396;2023-03-01T07:17:50;44.40;;;20.33;;
52686;SDS011;38584;49.426;8.396;2023-03-01T07:20:16;38.15;;;19.17;;
52686;SDS011;38584;49.426;8.396;2023-03-01T07:22:45;36.95;;;19.75;;
52686;SDS011;38584;49.426;8.396;2023-03-01T07:25:16;47.80;;;19.20;;
52686;SDS011;38584;49.426;8.396;2023-03-01T07:27:41;36.45;;;19.65;;
52686;SDS011;38584;49.426;8.396;2023-03-01T07:30:07;36.58;;;19.25;;
52686;SDS011;38584;49.426;8.396;2023-03-01T07:32:33;34.83;;;19.48;;
52686;SDS011;38584;49.426;8.396;2023-03-01T07:34:58;36.25;;;18.85;;
52686;SDS011;38584;49.426;8.396;2023-03-01T07:37:23;41.20;;;17.70;;
52686;SDS011;38584;49.426;8.396;2023-03-01T07:39:49;35.33;;;18.73;;
52686;SDS011;38584;49.426;8.396;2023-03-01T07:42:14;38.63;;;18.23;;
52686;SDS011;38584;49.426;8.396;2023-03-01T07:44:39;37.30;;;18.83;;
52686;SDS011;38584;49.426;8.396;2023-03-01T07:47:08;34.22;;;18.65;;
52686;SDS011;38584;49.426;8.396;2023-03-01T07:49:39;42.72;;;20.05;;
52686;SDS011;38584;49.426;8.396;2023-03-01T07:52:05;34.92;;;18.95;;
52686;SDS011;38584;49.426;8.396;2023-03-01T07:54:33;40.75;;;19.92;;
52686;SDS011;38584;49.426;8.396;2023-03-01T07:56:58;43.70;;;18.92;;
52686;SDS011;38584;49.426;8.396;2023-03-01T07:59:24;40.70;;;18.42;;
52686;SDS011;38584;49.426;8.396;2023-03-01T08:01:53;34.45;;;17.90;;
52686;SDS011;38584;49.426;8.396;2023-03-01T08:04:19;31.58;;;18.75;;
52686;SDS011;38584;49.426;8.396;2023-03-01T08:06:46;35.33;;;19.08;;
52686;SDS011;38584;49.426;8.396;2023-03-01T08:09:17;33.58;;;17.55;;
52686;SDS011;38584;49.426;8.396;2023-03-01T08:11:42;34.30;;;18.52;;
52686;SDS011;38584;49.426;8.396;2023-03-01T08:14:10;33.38;;;17.52;;
52686;SDS011;38584;49.426;8.396;2023-03-01T08:16:39;35.75;;;18.67;;
52686;SDS011;38584;49.426;8.396;2023-03-01T08:19:08;34.17;;;19.50;;
52686;SDS011;38584;49.426;8.396;2023-03-01T08:21:35;35.67;;;18.85;;
52686;SDS011;38584;49.426;8.396;2023-03-01T08:24:04;29.63;;;17.70;;
52686;SDS011;38584;49.426;8.396;2023-03-01T08:26:33;36.50;;;18.88;;
52686;SDS011;38584;49.426;8.396;2023-03-01T08:29:02;34.78;;;18.52;;
52686;SDS011;38584;49.426;8.396;2023-03-01T08:31:29;30.67;;;16.88;;
52686;SDS011;38584;49.426;8.396;2023-03-01T08:33:58;29.33;;;17.15;;
52686;SDS011;38584;49.426;8.396;2023-03-01T08:36:28;34.17;;;18.50;;
52686;SDS011;38584;49.426;8.396;2023-03-01T08:38:57;29.75;;;17.35;;
52686;SDS011;38584;49.426;8.396;2023-03-01T08:41:23;31.70;;;17.63;;
52686;SDS011;38584;49.426;8.396;2023-03-01T08:43:49;34.03;;;18.23;;
52686;SDS011;38584;49.426;8.396;2023-03-01T08:46:14;32.80;;;19.05;;
52686;SDS011;38584;49.426;8.396;2023-03-01T08:48:39;33.72;;;18.67;;
52686;SDS011;38584;49.426;8.396;2023-03-01T08:51:15;30.30;;;16.83;;
52686;SDS011;38584;49.426;8.396;2023-03-01T08:53:41;37.78;;;18.15;;
52686;SDS011;38584;49.426;8.396;2023-03-01T08:56:07;34.60;;;18.55;;
52686;SDS011;38584;49.426;8.396;2023-03-01T08:58:33;34.45;;;17.77;;
52686;SDS011;38584;49.426;8.396;2023-03-01T09:00:58;30.67;;;17.52;;
52686;SDS011;38584;49.426;8.396;2023-03-01T09:03:24;30.42;;;17.67;;
52686;SDS011;38584;49.426;8.396;2023-03-01T09:05:50;33.08;;;18.10;;
52686;SDS011;38584;49.426;8.396;2023-03-01T09:08:19;31.80;;;18.63;;
52686;SDS011;38584;49.426;8.396;2023-03-01T09:10:45;31.08;;;16.58;;
52686;SDS011;38584;49.426;8.396;2023-03-01T09:13:11;35.42;;;18.80;;
52686;SDS011;38584;49.426;8.396;2023-03-01T09:15:42;29.98;;;17.45;;
52686;SDS011;38584;49.426;8.396;2023-03-01T09:18:07;32.03;;;17.35;;
52686;SDS011;38584;49.426;8.396;2023-03-01T09:20:33;31.25;;;16.92;;
52686;SDS011;38584;49.426;8.396;2023-03-01T09:23:01;31.48;;;18.17;;
52686;SDS011;38584;49.426;8.396;2023-03-01T09:25:26;28.35;;;17.00;;
52686;SDS011;38584;49.426;8.396;2023-03-01T09:27:53;31.30;;;19.23;;
52686;SDS011;38584;49.426;8.396;2023-03-01T09:30:25;33.40;;;18.55;;
52686;SDS011;38584;49.426;8.396;2023-03-01T09:32:50;33.10;;;18.08;;
52686;SDS011;38584;49.426;8.396;2023-03-01T09:35:15;32.90;;;18.83;;
52686;SDS011;38584;49.426;8.396;2023-03-01T09:37:44;31.35;;;17.27;;
52686;SDS011;38584;49.426;8.396;2023-03-01T09:40:12;31.65;;;17.95;;
52686;SDS011;38584;49.426;8.396;2023-03-01T09:42:45;34.83;;;18.85;;
52686;SDS011;38584;49.426;8.396;2023-03-01T09:45:44;32.95;;;19.20;;
52686;SDS011;38584;49.426;8.396;2023-03-01T09:48:21;32.22;;;18.92;;
52686;SDS011;38584;49.426;8.396;2023-03-01T09:50:49;31.77;;;18.45;;
52686;SDS011;38584;49.426;8.396;2023-03-01T09:53:17;32.63;;;18.25;;
52686;SDS011;38584;49.426;8.396;2023-03-01T10:01:25;30.25;;;17.70;;
52686;SDS011;38584;49.426;8.396;2023-03-01T10:09:34;32.97;;;19.45;;
52686;SDS011;38584;49.426;8.396;2023-03-01T10:12:02;34.38;;;19.35;;
52686;SDS011;38584;49.426;8.396;2023-03-01T10:14:35;33.45;;;19.20;;
52686;SDS011;38584;49.426;8.396;2023-03-01T10:19:47;32.70;;;19.02;;
52686;SDS011;38584;49.426;8.396;2023-03-01T10:22:20;32.75;;;19.00;;
52686;SDS011;38584;49.426;8.396;2023-03-01T10:24:48;32.10;;;18.05;;
52686;SDS011;38584;49.426;8.396;2023-03-01T10:27:19;32.33;;;18.42;;
52686;SDS011;38584;49.426;8.396;2023-03-01T10:32:25;32.88;;;18.77;;
52686;SDS011;38584;49.426;8.396;2023-03-01T10:34:51;30.92;;;18.52;;
52686;SDS011;38584;49.426;8.396;2023-03-01T10:37:17;32.25;;;19.35;;
52686;SDS011;38584;49.426;8.396;2023-03-01T10:39:55;33.60;;;18.70;;
52686;SDS011;38584;49.426;8.396;2023-03-01T10:42:30;31.35;;;18.35;;
52686;SDS011;38584;49.426;8.396;2023-03-01T10:44:57;33.47;;;19.57;;
52686;SDS011;38584;49.426;8.396;2023-03-01T10:47:30;34.10;;;19.45;;
52686;SDS011;38584;49.426;8.396;2023-03-01T10:49:59;31.60;;;19.65;;
52686;SDS011;38584;49.426;8.396;2023-03-01T10:52:36;31.67;;;19.13;;
52686;SDS011;38584;49.426;8.396;2023-03-01T10:57:41;29.80;;;18.27;;
52686;SDS011;38584;49.426;8.396;2023-03-01T11:02:50;31.60;;;19.63;;
52686;SDS011;38584;49.426;8.396;2023-03-01T11:05:24;29.52;;;18.55;;
52686;SDS011;38584;49.426;8.396;2023-03-01T11:10:25;31.10;;;19.27;;
52686;SDS011;38584;49.426;8.396;2023-03-01T11:12:52;34.65;;;20.25;;
52686;SDS011;38584;49.426;8.396;2023-03-01T11:15:27;31.98;;;19.10;;
52686;SDS011;38584;49.426;8.396;2023-03-01T11:17:54;32.00;;;19.50;;
52686;SDS011;38584;49.426;8.396;2023-03-01T11:20:29;30.63;;;18.67;;
52686;SDS011;38584;49.426;8.396;2023-03-01T11:22:57;28.75;;;17.98;;
52686;SDS011;38584;49.426;8.396;2023-03-01T11:25:31;30.67;;;18.70;;
52686;SDS011;38584;49.426;8.396;2023-03-01T11:28:06;29.02;;;18.55;;
52686;SDS011;38584;49.426;8.396;2023-03-01T11:33:24;34.35;;;18.60;;
52686;SDS011;38584;49.426;8.396;2023-03-01T11:38:57;33.10;;;18.88;;
52686;SDS011;38584;49.426;8.396;2023-03-01T11:41:34;32.45;;;18.02;;
52686;SDS011;38584;49.426;8.396;2023-03-01T11:44:14;35.28;;;17.83;;
52686;SDS011;38584;49.426;8.396;2023-03-01T11:50:06;31.52;;;17.55;;
52686;SDS011;38584;49.426;8.396;2023-03-01T11:52:57;32.53;;;18.15;;
52686;SDS011;38584;49.426;8.396;2023-03-01T11:55:41;31.33;;;18.85;;
52686;SDS011;38584;49.426;8.396;2023-03-01T11:58:19;30.50;;;17.13;;
52686;SDS011;38584;49.426;8.396;2023-03-01T12:01:31;31.50;;;16.88;;
52686;SDS011;38584;49.426;8.396;2023-03-01T12:26:28;26.35;;;16.52;;
52686;SDS011;38584;49.426;8.396;2023-03-01T12:34:50;28.42;;;16.52;;
52686;SDS011;38584;49.426;8.396;2023-03-01T12:40:48;25.10;;;16.77;;
52686;SDS011;38584;49.426;8.396;2023-03-01T12:43:46;28.77;;;16.85;;
52686;SDS011;38584;49.426;8.396;2023-03-01T12:49:13;27.63;;;15.80;;
52686;SDS011;38584;49.426;8.396;2023-03-01T12:54:39;25.15;;;15.07;;
52686;SDS011;38584;49.426;8.396;2023-03-01T12:57:40;26.67;;;15.40;;
52686;SDS011;38584;49.426;8.396;2023-03-01T13:02:52;27.85;;;14.88;;
52686;SDS011;38584;49.426;8.396;2023-03-01T13:05:33;25.35;;;15.40;;
52686;SDS011;38584;49.426;8.396;2023-03-01T13:08:19;23.73;;;15.60;;
52686;SDS011;38584;49.426;8.396;2023-03-01T13:10:48;27.40;;;14.82;;
52686;SDS011;38584;49.426;8.396;2023-03-01T13:13:22;23.38;;;14.68;;
52686;SDS011;38584;49.426;8.396;2023-03-01T13:16:19;23.17;;;14.30;;
52686;SDS011;38584;49.426;8.396;2023-03-01T13:19:18;22.00;;;14.20;;
52686;SDS011;38584;49.426;8.396;2023-03-01T13:21:45;25.65;;;14.20;;
52686;SDS011;38584;49.426;8.396;2023-03-01T13:24:25;21.73;;;14.25;;
52686;SDS011;38584;49.426;8.396;2023-03-01T13:27:18;21.50;;;14.23;;
52686;SDS011;38584;49.426;8.396;2023-03-01T13:29:51;23.20;;;13.48;;
52686;SDS011;38584;49.426;8.396;2023-03-01T13:34:48;23.55;;;13.48;;
52686;SDS011;38584;49.426;8.396;2023-03-01T13:37:19;20.87;;;13.43;;
52686;SDS011;38584;49.426;8.396;2023-03-01T13:39:46;23.20;;;14.30;;
52686;SDS011;38584;49.426;8.396;2023-03-01T13:42:32;20.33;;;13.02;;
52686;SDS011;38584;49.426;8.396;2023-03-01T13:45:45;21.70;;;13.32;;
52686;SDS011;38584;49.426;8.396;2023-03-01T13:50:47;23.83;;;14.57;;
52686;SDS011;38584;49.426;8.396;2023-03-01T13:53:17;20.95;;;13.68;;
52686;SDS011;38584;49.426;8.396;2023-03-01T13:55:48;21.52;;;13.60;;
52686;SDS011;38584;49.426;8.396;2023-03-01T13:58:24;21.70;;;13.68;;
52686;SDS011;38584;49.426;8.396;2023-03-01T14:00:55;20.70;;;12.95;;
52686;SDS011;38584;49.426;8.396;2023-03-01T14:03:34;24.60;;;13.05;;
52686;SDS011;38584;49.426;8.396;2023-03-01T14:06:07;21.55;;;12.70;;
52686;SDS011;38584;49.426;8.396;2023-03-01T14:08:43;22.27;;;12.82;;
52686;SDS011;38584;49.426;8.396;2023-03-01T14:13:48;24.02;;;12.80;;
52686;SDS011;38584;49.426;8.396;2023-03-01T14:19:29;21.90;;;12.40;;
52686;SDS011;38584;49.426;8.396;2023-03-01T14:25:02;18.85;;;11.90;;
52686;SDS011;38584;49.426;8.396;2023-03-01T14:27:37;21.15;;;12.82;;
52686;SDS011;38584;49.426;8.396;2023-03-01T14:30:14;25.63;;;11.50;;
52686;SDS011;38584;49.426;8.396;2023-03-01T14:32:47;23.60;;;12.90;;
52686;SDS011;38584;49.426;8.396;2023-03-01T14:35:28;20.27;;;12.18;;
52686;SDS011;38584;49.426;8.396;2023-03-01T14:37:55;18.45;;;11.95;;
52686;SDS011;38584;49.426;8.396;2023-03-01T14:40:27;20.20;;;11.55;;
52686;SDS011;38584;49.426;8.396;2023-03-01T14:43:08;20.85;;;12.25;;
52686;SDS011;38584;49.426;8.396;2023-03-01T14:45:35;22.42;;;12.20;;
52686;SDS011;38584;49.426;8.396;2023-03-01T14:48:01;18.13;;;11.43;;
52686;SDS011;38584;49.426;8.396;2023-03-01T14:50:29;20.25;;;10.80;;
52686;SDS011;38584;49.426;8.396;2023-03-01T14:53:05;23.67;;;11.95;;
52686;SDS011;38584;49.426;8.396;2023-03-01T14:55:41;19.58;;;12.30;;
52686;SDS011;38584;49.426;8.396;2023-03-01T14:58:18;20.00;;;11.70;;
52686;SDS011;38584;49.426;8.396;2023-03-01T15:00:55;22.83;;;12.07;;
52686;SDS011;38584;49.426;8.396;2023-03-01T15:03:35;19.27;;;12.02;;
52686;SDS011;38584;49.426;8.396;2023-03-01T15:06:02;20.02;;;12.02;;
52686;SDS011;38584;49.426;8.396;2023-03-01T15:08:29;19.33;;;11.32;;
52686;SDS011;38584;49.426;8.396;2023-03-01T15:11:02;19.13;;;11.23;;
52686;SDS011;38584;49.426;8.396;2023-03-01T15:13:48;20.08;;;11.07;;
52686;SDS011;38584;49.426;8.396;2023-03-01T15:16:13;19.73;;;11.50;;
52686;SDS011;38584;49.426;8.396;2023-03-01T15:18:45;20.40;;;12.10;;
52686;SDS011;38584;49.426;8.396;2023-03-01T15:21:20;20.92;;;11.75;;
52686;SDS011;38584;49.426;8.396;2023-03-01T15:23:54;21.73;;;12.10;;
52686;SDS011;38584;49.426;8.396;2023-03-01T15:28:52;20.48;;;11.65;;
52686;SDS011;38584;49.426;8.396;2023-03-01T15:31:36;21.52;;;12.00;;
52686;SDS011;38584;49.426;8.396;2023-03-01T15:34:11;21.75;;;12.55;;
52686;SDS011;38584;49.426;8.396;2023-03-01T15:36:47;21.87;;;12.03;;
52686;SDS011;38584;49.426;8.396;2023-03-01T15:39:32;22.70;;;11.55;;
52686;SDS011;38584;49.426;8.396;2023-03-01T15:42:05;21.83;;;12.20;;
52686;SDS011;38584;49.426;8.396;2023-03-01T15:44:33;23.27;;;11.82;;
52686;SDS011;38584;49.426;8.396;2023-03-01T15:47:00;20.05;;;11.32;;
52686;SDS011;38584;49.426;8.396;2023-03-01T15:49:37;20.02;;;11.65;;
52686;SDS011;38584;49.426;8.396;2023-03-01T15:52:05;27.30;;;12.52;;
52686;SDS011;38584;49.426;8.396;2023-03-01T15:54:34;22.48;;;11.30;;
52686;SDS011;38584;49.426;8.396;2023-03-01T15:57:00;24.02;;;11.00;;
52686;SDS011;38584;49.426;8.396;2023-03-01T15:59:25;21.00;;;11.38;;
52686;SDS011;38584;49.426;8.396;2023-03-01T16:01:50;21.80;;;11.27;;
52686;SDS011;38584;49.426;8.396;2023-03-01T16:04:17;20.17;;;10.65;;
52686;SDS011;38584;49.426;8.396;2023-03-01T16:06:47;23.65;;;10.93;;
52686;SDS011;38584;49.426;8.396;2023-03-01T16:09:25;20.40;;;10.57;;
52686;SDS011;38584;49.426;8.396;2023-03-01T16:11:54;21.00;;;10.48;;
52686;SDS011;38584;49.426;8.396;2023-03-01T16:14:25;22.02;;;11.35;;
52686;SDS011;38584;49.426;8.396;2023-03-01T16:16:53;22.33;;;10.18;;
52686;SDS011;38584;49.426;8.396;2023-03-01T16:19:19;18.58;;;9.85;;
52686;SDS011;38584;49.426;8.396;2023-03-01T16:21:44;23.17;;;10.95;;
52686;SDS011;38584;49.426;8.396;2023-03-01T16:24:11;19.83;;;10.57;;
52686;SDS011;38584;49.426;8.396;2023-03-01T16:26:37;20.42;;;10.88;;